Time;durP1;ratioP1;P1;durP2;ratioP2;P2;SDS_P1;SDS_P2;PMS_P1;PMS_P2;Temp;Humidity;BMP_temperature;BMP_pressure;BME280_temperature;BME280_humidity;BME280_pressure;Samples;Min_cycle;Max_cycle;Signal;HPM_P1;HPM_P2
2022/08/20 00:00:13;;;;;;;7.55;2.63;;;18.00;99.90;;;;;;5124993;27;20050;-68
2022/08/20 00:02:47;;;;;;;5.97;2.55;;;18.00;99.90;;;;;;5143204;27;20078;-68
2022/08/20 00:05:15;;;;;;;5.93;2.30;;;18.00;99.90;;;;;;5146134;27;20039;-68
2022/08/20 00:07:40;;;;;;;6.85;2.40;;;18.00;99.90;;;;;;5126036;27;20047;-68
2022/08/20 00:10:07;;;;;;;5.32;2.53;;;18.00;99.90;;;;;;5146103;27;20057;-68
2022/08/20 00:12:34;;;;;;;5.25;2.42;;;18.00;99.90;;;;;;5125378;27;20122;-68
2022/08/20 00:15:00;;;;;;;5.80;2.00;;;18.00;99.90;;;;;;5139004;27;20042;-68
2022/08/20 00:17:28;;;;;;;7.53;2.40;;;18.00;99.90;;;;;;5145469;27;20053;-69
2022/08/20 00:19:54;;;;;;;6.05;2.40;;;17.90;99.90;;;;;;5125340;27;20051;-68
2022/08/20 00:22:19;;;;;;;5.78;2.58;;;17.90;99.90;;;;;;5127032;27;20070;-68
2022/08/20 00:24:45;;;;;;;7.25;2.97;;;17.80;99.90;;;;;;5144481;27;20386;-68
2022/08/20 00:27:11;;;;;;;5.38;2.10;;;17.90;99.90;;;;;;5125957;27;20047;-69
2022/08/20 00:29:37;;;;;;;6.70;2.35;;;17.80;99.90;;;;;;5127575;27;20095;-68
2022/08/20 00:32:03;;;;;;;5.63;2.65;;;17.80;99.90;;;;;;5127101;27;20523;-68
2022/08/20 00:34:29;;;;;;;7.75;2.90;;;17.70;99.90;;;;;;5143322;27;20038;-69
2022/08/20 00:36:54;;;;;;;8.77;3.08;;;17.70;99.90;;;;;;5146302;27;20038;-68
2022/08/20 00:39:20;;;;;;;4.68;2.25;;;17.60;99.90;;;;;;5124892;27;20043;-68
2022/08/20 00:41:45;;;;;;;6.43;2.80;;;17.60;99.90;;;;;;5145281;27;20046;-68
2022/08/20 00:44:20;;;;;;;5.10;2.28;;;17.60;99.90;;;;;;5144318;27;20035;-68
2022/08/20 00:46:47;;;;;;;8.35;2.63;;;17.60;99.90;;;;;;5123300;27;20039;-69
2022/08/20 00:49:24;;;;;;;6.28;2.17;;;17.60;99.90;;;;;;5123260;27;20035;-68
2022/08/20 00:52:02;;;;;;;5.07;2.15;;;17.60;99.90;;;;;;5126245;27;20126;-69
2022/08/20 00:54:40;;;;;;;7.40;2.05;;;17.50;99.90;;;;;;5121013;27;20550;-68
2022/08/20 00:57:31;;;;;;;5.78;2.30;;;17.50;99.90;;;;;;5141393;27;20051;-68
2022/08/20 00:59:58;;;;;;;6.72;2.08;;;17.50;99.90;;;;;;5126749;27;20486;-69
2022/08/20 01:02:27;;;;;;;6.80;2.03;;;17.50;99.90;;;;;;5139377;27;20077;-69
2022/08/20 01:04:54;;;;;;;5.47;2.17;;;17.40;99.90;;;;;;5119757;27;20105;-69
2022/08/20 01:07:32;;;;;;;6.75;2.15;;;17.40;99.90;;;;;;5145706;27;20431;-69
2022/08/20 01:10:13;;;;;;;6.13;2.25;;;17.40;99.90;;;;;;5120691;27;20058;-69
2022/08/20 01:12:43;;;;;;;4.97;1.80;;;17.40;99.90;;;;;;5144408;27;20112;-69
2022/08/20 01:15:14;;;;;;;7.10;1.90;;;17.40;99.90;;;;;;5143254;27;20490;-69
2022/08/20 01:17:44;;;;;;;7.60;1.90;;;17.40;99.90;;;;;;5126508;27;20034;-68
2022/08/20 01:20:14;;;;;;;8.98;2.25;;;17.40;99.90;;;;;;5143398;27;20474;-69
2022/08/20 01:23:28;;;;;;;6.25;1.95;;;17.50;99.90;;;;;;5125148;27;20089;-69
2022/08/20 01:26:14;;;;;;;7.63;2.08;;;17.40;99.90;;;;;;5118539;27;20531;-68
2022/08/20 01:28:51;;;;;;;6.72;1.90;;;17.40;99.90;;;;;;5124209;27;20046;-68
2022/08/20 01:31:24;;;;;;;5.65;1.77;;;17.40;99.90;;;;;;5141963;27;20049;-68
2022/08/20 01:33:52;;;;;;;9.75;2.75;;;17.40;99.90;;;;;;5138120;27;20035;-69
2022/08/20 01:36:22;;;;;;;3.95;1.35;;;17.40;99.90;;;;;;5137328;27;20047;-68
2022/08/20 01:38:48;;;;;;;8.35;1.63;;;17.40;99.90;;;;;;5119582;27;20122;-68
2022/08/20 01:41:42;;;;;;;6.28;1.75;;;17.40;99.90;;;;;;5125552;27;20454;-68
2022/08/20 01:44:08;;;;;;;6.10;1.70;;;17.40;99.90;;;;;;5124847;27;20086;-68
2022/08/20 01:46:37;;;;;;;6.85;1.90;;;17.40;99.90;;;;;;5143461;27;20107;-69
2022/08/20 01:49:11;;;;;;;4.70;1.65;;;17.30;99.90;;;;;;5142622;27;20043;-68
2022/08/20 01:51:38;;;;;;;6.38;1.63;;;17.40;99.90;;;;;;5124750;27;20410;-67
2022/08/20 01:54:05;;;;;;;4.57;1.30;;;17.40;99.90;;;;;;5124939;27;20035;-68
2022/08/20 01:56:31;;;;;;;6.57;1.60;;;17.40;99.90;;;;;;5124401;27;20371;-68
2022/08/20 01:59:00;;;;;;;4.78;1.73;;;17.40;99.90;;;;;;5142508;27;20487;-68
2022/08/20 02:01:34;;;;;;;6.82;1.67;;;17.40;99.90;;;;;;5121730;27;20043;-68
2022/08/20 02:04:02;;;;;;;5.00;1.50;;;17.40;99.90;;;;;;5140315;27;20049;-68
2022/08/20 02:06:30;;;;;;;7.32;1.58;;;17.40;99.90;;;;;;5143144;27;20087;-68
2022/08/20 02:08:59;;;;;;;6.70;2.05;;;17.30;99.90;;;;;;5143210;27;20039;-68
2022/08/20 02:11:27;;;;;;;6.80;1.85;;;17.40;99.90;;;;;;5141963;27;20103;-68
2022/08/20 02:13:53;;;;;;;7.40;1.88;;;17.30;99.90;;;;;;5143561;27;20033;-69
2022/08/20 02:16:27;;;;;;;5.70;1.65;;;17.30;99.90;;;;;;5122829;27;20042;-69
2022/08/20 02:18:57;;;;;;;3.90;1.60;;;17.20;99.90;;;;;;5124834;27;20099;-69
2022/08/20 02:21:27;;;;;;;4.22;1.58;;;17.30;99.90;;;;;;5142523;27;20094;-68
2022/08/20 02:23:53;;;;;;;4.25;1.40;;;17.30;99.90;;;;;;5123654;27;20039;-68
2022/08/20 02:26:19;;;;;;;3.88;1.70;;;17.20;99.90;;;;;;5141959;27;20528;-68
2022/08/20 02:28:50;;;;;;;5.72;1.65;;;17.10;99.90;;;;;;5144458;27;20042;-67
2022/08/20 02:31:18;;;;;;;4.07;1.40;;;17.10;99.90;;;;;;5141174;27;20039;-67
2022/08/20 02:33:44;;;;;;;6.07;1.50;;;17.00;99.90;;;;;;5125787;27;20406;-68
2022/08/20 02:36:11;;;;;;;4.70;1.50;;;17.00;99.90;;;;;;5143006;27;20750;-67
2022/08/20 02:38:38;;;;;;;5.60;1.40;;;17.00;99.90;;;;;;5136298;27;20043;-68
2022/08/20 02:41:05;;;;;;;5.93;1.67;;;17.00;99.90;;;;;;5125480;27;20038;-68
2022/08/20 02:43:31;;;;;;;4.97;1.40;;;16.90;99.90;;;;;;5139833;27;20045;-68
2022/08/20 02:45:58;;;;;;;6.07;1.38;;;16.90;99.90;;;;;;5122134;27;20039;-68
2022/08/20 02:48:24;;;;;;;4.35;1.13;;;16.90;99.90;;;;;;5124714;27;20126;-68
2022/08/20 02:50:53;;;;;;;4.57;1.52;;;16.90;99.90;;;;;;5142939;27;20035;-68
2022/08/20 02:53:19;;;;;;;7.95;1.70;;;16.80;99.90;;;;;;5143063;27;20047;-68
2022/08/20 02:55:45;;;;;;;7.82;1.40;;;16.80;99.90;;;;;;5128774;27;20116;-68
2022/08/20 02:58:11;;;;;;;3.85;1.40;;;16.70;99.90;;;;;;5122896;27;20469;-68
2022/08/20 03:00:37;;;;;;;4.28;1.50;;;16.70;99.90;;;;;;5125669;27;20027;-68
2022/08/20 03:03:03;;;;;;;4.10;1.38;;;16.60;99.90;;;;;;5148703;27;20083;-68
2022/08/20 03:05:29;;;;;;;4.35;1.30;;;16.60;99.90;;;;;;5126231;27;20039;-68
2022/08/20 03:07:55;;;;;;;4.50;1.40;;;16.60;99.90;;;;;;5128731;27;20432;-68
2022/08/20 03:10:24;;;;;;;5.63;1.67;;;16.40;99.90;;;;;;5128148;27;20389;-68
2022/08/20 03:12:51;;;;;;;4.80;1.42;;;16.50;99.90;;;;;;5145831;27;20043;-68
2022/08/20 03:15:17;;;;;;;3.72;1.60;;;16.30;99.90;;;;;;5146628;27;20039;-67
2022/08/20 03:17:46;;;;;;;3.75;1.60;;;16.30;99.90;;;;;;5144511;27;20039;-67
2022/08/20 03:20:13;;;;;;;3.22;1.20;;;16.30;99.90;;;;;;5144590;27;20055;-67
2022/08/20 03:22:39;;;;;;;2.58;1.08;;;16.10;99.90;;;;;;5129007;27;20047;-67
2022/08/20 03:25:06;;;;;;;7.03;1.58;;;16.10;99.90;;;;;;5144454;27;20479;-68
2022/08/20 03:27:31;;;;;;;5.63;1.23;;;16.00;99.90;;;;;;5147004;27;20490;-68
2022/08/20 03:29:57;;;;;;;3.22;1.65;;;15.90;99.90;;;;;;5144133;27;20050;-67
2022/08/20 03:32:23;;;;;;;3.67;1.35;;;15.80;99.90;;;;;;5129526;27;20042;-68
2022/08/20 03:34:49;;;;;;;4.93;1.40;;;15.80;99.90;;;;;;5144472;27;20553;-68
2022/08/20 03:37:14;;;;;;;4.32;1.60;;;15.70;99.90;;;;;;5127919;27;20494;-67
2022/08/20 03:39:40;;;;;;;4.60;1.27;;;15.60;99.90;;;;;;5146666;27;20066;-68
2022/08/20 03:42:06;;;;;;;3.15;1.10;;;15.60;99.90;;;;;;5125575;27;20087;-68
2022/08/20 03:44:32;;;;;;;5.18;1.40;;;15.50;99.90;;;;;;5127615;27;20126;-68
2022/08/20 03:46:58;;;;;;;3.95;1.25;;;15.50;99.90;;;;;;5125552;27;20039;-69
2022/08/20 03:49:24;;;;;;;5.65;1.50;;;15.40;99.90;;;;;;5146711;27;20042;-68
2022/08/20 03:51:50;;;;;;;4.13;1.33;;;15.40;99.90;;;;;;5144939;27;20080;-68
2022/08/20 03:54:16;;;;;;;3.47;1.40;;;15.40;99.90;;;;;;5128632;27;20031;-67
2022/08/20 03:56:42;;;;;;;5.18;1.60;;;15.40;99.90;;;;;;5145051;27;20637;-68
2022/08/20 03:59:07;;;;;;;4.90;1.45;;;15.30;99.90;;;;;;5143490;27;20041;-68
2022/08/20 04:01:33;;;;;;;6.63;1.30;;;15.20;99.90;;;;;;5126187;27;20046;-68
2022/08/20 04:03:59;;;;;;;4.75;1.48;;;15.20;99.90;;;;;;5146297;27;20441;-67
2022/08/20 04:06:28;;;;;;;4.43;1.40;;;15.00;99.90;;;;;;5124469;27;20043;-68
2022/08/20 04:08:54;;;;;;;6.90;1.30;;;15.00;99.90;;;;;;5120726;27;20426;-67
2022/08/20 04:11:20;;;;;;;4.03;1.20;;;14.90;99.90;;;;;;5128703;27;20379;-67
2022/08/20 04:13:45;;;;;;;5.50;1.48;;;14.90;99.90;;;;;;5128058;27;20053;-67
2022/08/20 04:16:11;;;;;;;3.35;1.42;;;14.80;99.90;;;;;;5143481;27;20082;-67
2022/08/20 04:18:37;;;;;;;5.25;1.40;;;14.80;99.90;;;;;;5127147;27;20039;-67
2022/08/20 04:21:04;;;;;;;5.20;1.27;;;14.90;99.90;;;;;;5145046;27;20486;-68
2022/08/20 04:23:30;;;;;;;6.35;1.55;;;14.70;99.90;;;;;;5125315;27;20458;-67
2022/08/20 04:25:57;;;;;;;5.15;1.45;;;14.80;99.90;;;;;;5146607;27;20070;-67
2022/08/20 04:28:23;;;;;;;4.85;1.27;;;14.80;99.90;;;;;;5146681;27;20110;-68
2022/08/20 04:30:52;;;;;;;6.15;1.58;;;14.70;99.90;;;;;;5142669;27;20101;-68
2022/08/20 04:33:19;;;;;;;3.72;1.45;;;14.70;99.90;;;;;;5120883;27;20047;-68
2022/08/20 04:35:48;;;;;;;5.07;1.65;;;14.60;99.90;;;;;;5146865;27;20074;-67
2022/08/20 04:38:17;;;;;;;3.97;1.40;;;14.60;99.90;;;;;;5142419;27;20043;-68
2022/08/20 04:40:59;;;;;;;4.55;1.70;;;14.50;99.90;;;;;;5146449;27;20062;-67
2022/08/20 04:43:32;;;;;;;5.38;1.55;;;14.50;99.90;;;;;;5139672;27;20038;-67
2022/08/20 04:46:00;;;;;;;6.88;1.85;;;14.40;99.90;;;;;;5124680;27;20047;-68
2022/08/20 04:48:28;;;;;;;4.00;1.67;;;14.40;99.90;;;;;;5126951;27;20133;-67
2022/08/20 04:50:55;;;;;;;5.90;2.03;;;14.40;99.90;;;;;;5124557;27;20095;-68
2022/08/20 04:53:22;;;;;;;6.00;1.52;;;14.40;99.90;;;;;;5146647;27;20074;-67
2022/08/20 04:55:52;;;;;;;5.25;1.90;;;14.30;99.90;;;;;;5142810;27;20509;-67
2022/08/20 04:58:21;;;;;;;4.50;1.88;;;14.40;99.90;;;;;;5141293;27;20088;-67
2022/08/20 05:00:50;;;;;;;5.78;1.70;;;14.30;99.90;;;;;;5142939;27;20043;-68
2022/08/20 05:03:18;;;;;;;4.68;1.95;;;14.30;99.90;;;;;;5127899;27;20136;-67
2022/08/20 05:05:44;;;;;;;3.22;1.27;;;14.30;99.90;;;;;;5119761;27;20039;-67
2022/08/20 05:08:11;;;;;;;4.85;1.77;;;14.30;99.90;;;;;;5145690;27;20090;-68
2022/08/20 05:10:39;;;;;;;5.47;1.73;;;14.30;99.90;;;;;;5124461;27;20047;-68
2022/08/20 05:13:05;;;;;;;4.22;1.80;;;14.40;99.90;;;;;;5123079;27;20054;-67
2022/08/20 05:15:31;;;;;;;5.70;1.60;;;14.40;99.90;;;;;;5125888;27;20119;-66
2022/08/20 05:18:01;;;;;;;6.07;1.70;;;14.40;99.90;;;;;;5144063;27;20053;-67
2022/08/20 05:20:30;;;;;;;3.30;1.40;;;14.40;99.90;;;;;;5143027;27;20108;-67
2022/08/20 05:22:56;;;;;;;5.15;1.70;;;14.40;99.90;;;;;;5144054;27;20050;-67
2022/08/20 05:25:22;;;;;;;4.68;1.85;;;14.40;99.90;;;;;;5124658;27;20092;-68
2022/08/20 05:27:48;;;;;;;4.22;1.60;;;14.50;99.90;;;;;;5125390;27;20057;-67
2022/08/20 05:30:18;;;;;;;6.72;2.20;;;14.50;99.90;;;;;;5126029;27;20035;-68
2022/08/20 05:32:45;;;;;;;4.30;1.58;;;14.50;99.90;;;;;;5130403;27;20073;-68
2022/08/20 05:35:11;;;;;;;5.93;1.75;;;14.60;99.90;;;;;;5141085;27;20067;-68
2022/08/20 05:37:42;;;;;;;6.05;1.95;;;14.60;99.90;;;;;;5127523;27;20049;-68
2022/08/20 05:40:10;;;;;;;4.28;1.50;;;14.60;99.90;;;;;;5118584;27;20146;-68
2022/08/20 05:42:36;;;;;;;4.95;2.08;;;14.70;99.90;;;;;;5118980;27;20039;-67
2022/08/20 05:45:03;;;;;;;6.13;2.10;;;14.70;99.90;;;;;;5141677;27;20088;-68
2022/08/20 05:47:29;;;;;;;4.68;1.95;;;14.80;99.90;;;;;;5125011;27;20100;-67
2022/08/20 05:49:55;;;;;;;5.13;2.08;;;14.90;99.90;;;;;;5124430;27;20031;-67
2022/08/20 05:52:20;;;;;;;4.88;2.05;;;14.90;99.90;;;;;;5143059;27;20066;-68
2022/08/20 05:54:46;;;;;;;7.65;2.53;;;14.90;99.90;;;;;;5143080;27;20035;-67
2022/08/20 05:57:15;;;;;;;6.28;2.30;;;15.00;99.90;;;;;;5141633;27;20047;-67
2022/08/20 05:59:40;;;;;;;5.90;2.20;;;15.00;99.90;;;;;;5144914;27;20035;-67
2022/08/20 06:04:23;;;;;;;5.05;2.20;;;15.00;99.90;;;;;;5121769;27;20039;-68
2022/08/20 06:04:52;;;;;;;4.85;1.77;;;15.00;99.90;;;;;;5123373;27;20073;-68
2022/08/20 06:07:17;;;;;;;4.35;1.85;;;15.10;99.90;;;;;;5143195;27;20070;-68
2022/08/20 06:09:43;;;;;;;5.97;2.55;;;15.10;99.90;;;;;;5123085;27;20043;-68
2022/08/20 06:12:09;;;;;;;5.22;2.00;;;15.20;99.90;;;;;;5125474;27;20394;-68
2022/08/20 06:14:35;;;;;;;7.57;2.83;;;15.40;99.90;;;;;;5141420;27;20053;-67
2022/08/20 06:17:14;;;;;;;4.78;2.40;;;15.30;99.90;;;;;;5117408;27;20122;-68
2022/08/20 06:19:41;;;;;;;5.32;2.17;;;15.50;99.90;;;;;;5121072;27;20049;-68
2022/08/20 06:22:07;;;;;;;4.93;2.03;;;15.50;99.90;;;;;;5143409;27;20050;-68
2022/08/20 06:24:32;;;;;;;5.72;2.10;;;15.50;99.90;;;;;;5122120;27;20070;-68
2022/08/20 06:27:01;;;;;;;4.45;2.28;;;15.60;99.90;;;;;;5118121;27;20509;-68
2022/08/20 06:29:28;;;;;;;4.50;1.92;;;15.70;99.90;;;;;;5143500;27;20039;-68
2022/08/20 06:31:54;;;;;;;5.22;2.30;;;15.70;99.90;;;;;;5141241;27;20043;-68
2022/08/20 06:34:21;;;;;;;7.90;2.22;;;15.80;99.90;;;;;;5143676;27;20047;-68
2022/08/20 06:36:46;;;;;;;5.65;2.20;;;15.90;99.90;;;;;;5123502;27;20041;-69
2022/08/20 06:39:13;;;;;;;5.93;2.38;;;15.90;99.90;;;;;;5123635;27;20129;-67
2022/08/20 06:41:39;;;;;;;5.95;2.85;;;16.10;99.90;;;;;;5143253;27;20432;-67
2022/08/20 06:44:09;;;;;;;4.70;1.75;;;16.10;99.90;;;;;;5139198;27;20543;-68
2022/08/20 06:46:35;;;;;;;6.65;2.00;;;16.20;99.90;;;;;;5141900;27;20508;-67
2022/08/20 06:49:03;;;;;;;7.07;1.95;;;16.30;99.90;;;;;;5143818;27;20050;-68
2022/08/20 06:51:29;;;;;;;5.47;2.10;;;16.40;99.90;;;;;;5140127;27;20050;-68
2022/08/20 06:53:57;;;;;;;6.63;1.90;;;16.50;99.90;;;;;;5118361;28;20038;-67
2022/08/20 06:56:23;;;;;;;4.22;1.70;;;16.70;99.90;;;;;;5144518;27;20439;-70
2022/08/20 06:58:49;;;;;;;3.67;1.50;;;16.80;99.90;;;;;;5140421;27;20035;-68
2022/08/20 07:01:19;;;;;;;6.00;2.05;;;16.90;99.90;;;;;;5142900;27;20088;-67
2022/08/20 07:03:47;;;;;;;5.95;1.77;;;17.00;99.90;;;;;;5141887;27;20031;-68
2022/08/20 07:06:13;;;;;;;6.68;1.85;;;17.10;99.90;;;;;;5123374;27;20044;-68
2022/08/20 07:08:39;;;;;;;5.20;2.17;;;17.20;99.90;;;;;;5123924;27;20038;-67
2022/08/20 07:11:05;;;;;;;4.45;1.70;;;17.30;99.90;;;;;;5141732;27;20070;-68
2022/08/20 07:13:31;;;;;;;6.05;1.95;;;17.50;99.90;;;;;;5121367;27;20402;-67
2022/08/20 07:16:00;;;;;;;6.20;2.40;;;17.60;99.90;;;;;;5143236;27;20030;-67
2022/08/20 07:18:25;;;;;;;5.53;1.70;;;17.70;99.90;;;;;;5122449;27;20040;-68
2022/08/20 07:20:55;;;;;;;5.10;1.80;;;18.00;99.90;;;;;;5124206;27;20558;-68
2022/08/20 07:23:22;;;;;;;8.57;2.00;;;18.00;99.90;;;;;;5118424;28;20478;-68
2022/08/20 07:25:48;;;;;;;5.03;1.90;;;18.20;99.90;;;;;;5143196;27;20034;-68
2022/08/20 07:28:18;;;;;;;5.18;1.85;;;18.90;99.90;;;;;;5121948;27;20037;-68
2022/08/20 07:33:29;;;;;;;7.38;1.92;;;21.40;99.90;;;;;;5138228;27;20078;-68
2022/08/20 07:35:57;;;;;;;7.93;2.35;;;22.30;99.90;;;;;;5142658;27;20031;-68
2022/08/20 07:38:24;;;;;;;5.50;1.80;;;22.60;99.90;;;;;;5140623;27;20047;-67
2022/08/20 07:40:58;;;;;;;7.93;2.22;;;22.70;99.90;;;;;;5144738;27;20039;-68
2022/08/20 07:43:25;;;;;;;6.45;1.90;;;23.10;99.90;;;;;;5126355;27;20038;-68
2022/08/20 07:45:55;;;;;;;7.90;2.13;;;24.10;99.80;;;;;;5125341;27;20054;-69
2022/08/20 07:48:27;;;;;;;6.63;1.80;;;25.30;98.80;;;;;;5128213;27;20034;-69
2022/08/20 07:50:54;;;;;;;9.13;2.10;;;25.90;95.00;;;;;;5144182;27;20427;-69
2022/08/20 07:53:20;;;;;;;6.32;1.67;;;26.90;94.50;;;;;;5128712;27;20087;-69
2022/08/20 07:55:46;;;;;;;6.25;1.80;;;27.50;93.10;;;;;;5124567;27;20051;-69
2022/08/20 07:58:16;;;;;;;8.73;2.20;;;28.20;93.50;;;;;;5124921;27;20043;-69
2022/08/20 08:00:42;;;;;;;7.07;2.03;;;28.80;90.70;;;;;;5139629;27;20509;-70
2022/08/20 08:03:08;;;;;;;6.50;1.77;;;29.10;91.90;;;;;;5128033;27;20046;-70
2022/08/20 08:05:37;;;;;;;7.22;1.80;;;29.30;91.50;;;;;;5127806;27;20372;-70
2022/08/20 08:08:08;;;;;;;7.63;1.85;;;29.50;91.40;;;;;;5125084;27;20125;-70
2022/08/20 08:10:36;;;;;;;6.80;1.75;;;29.60;90.20;;;;;;5127900;27;20039;-70
2022/08/20 08:13:06;;;;;;;5.72;2.10;;;29.90;88.70;;;;;;5144489;27;20118;-70
2022/08/20 08:15:36;;;;;;;6.47;1.58;;;30.20;88.60;;;;;;5139515;27;20100;-70
2022/08/20 08:18:07;;;;;;;5.95;2.05;;;30.60;85.90;;;;;;5125505;27;20083;-70
2022/08/20 08:20:40;;;;;;;7.38;2.05;;;30.80;84.10;;;;;;5127811;27;20069;-70
2022/08/20 08:23:10;;;;;;;8.45;1.90;;;30.90;81.30;;;;;;5124230;27;20047;-70
2022/08/20 08:25:38;;;;;;;7.03;1.80;;;31.40;84.20;;;;;;5128363;27;20494;-70
2022/08/20 08:28:04;;;;;;;8.25;2.00;;;31.40;81.80;;;;;;5126978;27;20042;-70
2022/08/20 08:30:33;;;;;;;6.63;2.00;;;31.20;82.80;;;;;;5124966;27;20124;-71
2022/08/20 08:35:45;;;;;;;5.93;1.60;;;31.70;82.90;;;;;;5121340;27;20043;-70
2022/08/20 08:38:12;;;;;;;6.35;1.90;;;32.20;80.70;;;;;;5146003;27;20039;-70
2022/08/20 08:40:38;;;;;;;5.05;1.80;;;32.50;81.20;;;;;;5120753;27;20448;-71
2022/08/20 08:43:05;;;;;;;5.72;1.52;;;32.60;81.20;;;;;;5123397;27;20039;-71
2022/08/20 08:45:44;;;;;;;5.95;1.77;;;33.00;80.50;;;;;;5142808;27;20118;-70
2022/08/20 08:48:16;;;;;;;7.53;1.63;;;33.30;78.00;;;;;;5139294;27;20432;-69
2022/08/20 08:50:45;;;;;;;5.57;1.55;;;33.20;77.40;;;;;;5144781;27;20399;-71
2022/08/20 08:53:20;;;;;;;6.20;2.10;;;33.10;75.70;;;;;;5124665;27;20051;-71
2022/08/20 08:55:46;;;;;;;7.93;1.93;;;33.30;77.10;;;;;;5145102;27;20038;-70
2022/08/20 08:58:11;;;;;;;5.57;1.77;;;33.50;75.50;;;;;;5143945;27;20295;-71
2022/08/20 09:00:37;;;;;;;5.35;2.00;;;33.20;76.10;;;;;;5142469;27;20042;-71
2022/08/20 09:03:09;;;;;;;4.43;1.70;;;33.20;76.00;;;;;;5146315;27;20035;-70
2022/08/20 09:05:47;;;;;;;6.07;1.50;;;33.20;73.10;;;;;;5137749;27;20083;-70
2022/08/20 09:08:18;;;;;;;6.32;1.80;;;33.20;74.80;;;;;;5122387;27;20479;-70
2022/08/20 09:10:44;;;;;;;7.70;2.17;;;32.90;74.70;;;;;;5145103;27;20035;-70
2022/08/20 09:13:10;;;;;;;6.75;1.85;;;31.90;75.70;;;;;;5123291;27;20054;-70
2022/08/20 09:15:36;;;;;;;7.45;1.70;;;31.90;77.30;;;;;;5129989;27;20031;-70
2022/08/20 09:18:02;;;;;;;5.72;1.55;;;31.90;76.80;;;;;;5123743;27;20035;-71
2022/08/20 09:20:28;;;;;;;8.45;1.98;;;31.20;76.50;;;;;;5126037;27;20482;-71
2022/08/20 09:22:54;;;;;;;5.10;1.40;;;30.20;77.90;;;;;;5142607;27;20047;-70
2022/08/20 09:25:20;;;;;;;5.00;1.80;;;30.40;77.50;;;;;;5143728;27;20039;-70
2022/08/20 09:27:45;;;;;;;8.68;1.65;;;30.80;78.00;;;;;;5144607;27;20047;-69
2022/08/20 09:30:15;;;;;;;5.63;1.98;;;30.60;76.20;;;;;;5144136;27;20034;-70
2022/08/20 09:32:41;;;;;;;4.90;1.70;;;31.00;77.50;;;;;;5142542;27;20043;-70
2022/08/20 09:35:08;;;;;;;5.22;1.60;;;31.00;77.20;;;;;;5126020;27;20513;-70
2022/08/20 09:37:35;;;;;;;5.18;1.30;;;31.00;75.40;;;;;;5142240;27;20046;-70
2022/08/20 09:40:04;;;;;;;6.32;1.80;;;31.30;75.30;;;;;;5125895;27;20095;-70
2022/08/20 09:42:34;;;;;;;5.00;1.70;;;31.50;74.40;;;;;;5140853;27;20047;-70
2022/08/20 09:45:04;;;;;;;7.03;1.90;;;31.90;75.30;;;;;;5136737;27;20055;-70
2022/08/20 09:47:30;;;;;;;5.25;1.60;;;31.70;74.80;;;;;;5126171;27;20046;-70
2022/08/20 09:49:58;;;;;;;5.60;1.63;;;31.90;75.70;;;;;;5123096;27;20044;-70
2022/08/20 09:52:26;;;;;;;8.68;1.92;;;31.60;71.30;;;;;;5126677;27;20070;-70
2022/08/20 09:55:03;;;;;;;7.10;1.75;;;31.70;73.80;;;;;;5140476;27;20568;-70
2022/08/20 09:57:30;;;;;;;4.40;1.80;;;32.10;73.10;;;;;;5138098;27;20064;-70
2022/08/20 10:00:02;;;;;;;6.78;1.45;;;32.20;73.40;;;;;;5126675;27;20375;-70
2022/08/20 10:02:28;;;;;;;5.10;1.63;;;32.00;72.50;;;;;;5118341;27;20043;-70
2022/08/20 10:04:56;;;;;;;5.60;1.63;;;32.00;72.80;;;;;;5126143;27;20421;-70
2022/08/20 10:07:22;;;;;;;5.80;1.80;;;32.10;73.60;;;;;;5137423;27;20540;-70
2022/08/20 10:09:48;;;;;;;6.78;1.48;;;32.00;70.90;;;;;;5125734;27;20532;-70
2022/08/20 10:12:13;;;;;;;5.40;1.80;;;32.10;71.80;;;;;;5124077;27;20095;-70
2022/08/20 10:14:39;;;;;;;4.93;1.50;;;32.20;71.20;;;;;;5142095;27;20038;-69
2022/08/20 10:17:05;;;;;;;4.93;1.73;;;32.40;72.40;;;;;;5124827;27;20058;-70
2022/08/20 10:19:31;;;;;;;4.97;1.60;;;32.60;72.60;;;;;;5142277;27;20035;-70
2022/08/20 10:21:58;;;;;;;6.60;1.67;;;32.40;70.90;;;;;;5124554;27;20165;-70
2022/08/20 10:24:25;;;;;;;4.97;1.60;;;32.30;71.00;;;;;;5141419;27;20078;-70
2022/08/20 10:26:56;;;;;;;4.93;1.50;;;32.20;71.20;;;;;;5144409;27;20401;-70
2022/08/20 10:29:22;;;;;;;4.53;1.58;;;31.90;70.50;;;;;;5137375;27;20124;-69
2022/08/20 10:31:47;;;;;;;6.03;1.77;;;31.00;72.20;;;;;;5137161;27;20498;-70
2022/08/20 10:34:13;;;;;;;6.60;2.10;;;30.30;73.20;;;;;;5143863;27;20435;-69
2022/08/20 10:36:47;;;;;;;4.03;1.58;;;30.00;74.70;;;;;;5122550;27;20043;-69
2022/08/20 10:39:12;;;;;;;5.07;1.60;;;29.70;73.60;;;;;;5125740;27;20054;-69
2022/08/20 10:41:38;;;;;;;5.00;1.65;;;29.10;74.80;;;;;;5142055;27;20497;-69
2022/08/20 10:44:03;;;;;;;7.05;1.88;;;28.50;73.80;;;;;;5120632;27;20035;-69
2022/08/20 10:46:29;;;;;;;7.60;2.22;;;27.70;75.90;;;;;;5142994;27;20034;-69
2022/08/20 10:48:55;;;;;;;7.72;1.98;;;27.40;76.90;;;;;;5122785;27;20040;-70
2022/08/20 10:51:21;;;;;;;7.95;1.95;;;27.10;76.40;;;;;;5124823;27;20042;-69
2022/08/20 10:53:46;;;;;;;6.90;1.98;;;27.20;76.70;;;;;;5141013;27;20039;-69
2022/08/20 10:56:12;;;;;;;5.28;1.80;;;27.80;77.20;;;;;;5125325;27;20045;-69
2022/08/20 10:58:41;;;;;;;5.00;1.55;;;28.50;77.60;;;;;;5138894;27;20085;-70
2022/08/20 11:01:07;;;;;;;6.57;2.15;;;29.30;78.70;;;;;;5122977;27;20038;-69
2022/08/20 11:03:33;;;;;;;3.78;1.55;;;30.10;75.50;;;;;;5124802;27;20420;-69
2022/08/20 11:05:59;;;;;;;4.88;1.98;;;30.60;75.10;;;;;;5122909;27;20076;-69
2022/08/20 11:08:24;;;;;;;4.43;1.67;;;30.90;74.30;;;;;;5123233;27;20061;-69
2022/08/20 11:10:53;;;;;;;5.18;1.35;;;31.40;72.50;;;;;;5142354;27;20398;-69
2022/08/20 11:13:19;;;;;;;11.45;2.13;;;31.50;72.50;;;;;;5140674;27;20073;-69
2022/08/20 11:15:45;;;;;;;5.15;1.73;;;31.50;72.50;;;;;;5147627;27;20069;-69
2022/08/20 11:18:12;;;;;;;4.57;1.60;;;31.80;71.90;;;;;;5143667;27;20467;-69
2022/08/20 11:20:38;;;;;;;6.32;1.50;;;31.90;70.70;;;;;;5148028;27;20051;-69
2022/08/20 11:23:04;;;;;;;6.22;1.88;;;31.50;70.50;;;;;;5126700;27;20055;-69
2022/08/20 11:25:30;;;;;;;8.23;1.50;;;31.10;70.00;;;;;;5146031;27;20474;-70
2022/08/20 11:28:02;;;;;;;4.18;1.60;;;31.30;70.50;;;;;;5127793;27;20130;-69
2022/08/20 11:30:34;;;;;;;5.13;1.77;;;31.50;71.00;;;;;;5146133;27;20046;-70
2022/08/20 11:33:00;;;;;;;6.13;1.80;;;31.20;71.90;;;;;;5127665;27;20075;-70
2022/08/20 11:35:28;;;;;;;4.18;1.70;;;31.20;72.10;;;;;;5145936;27;20039;-70
2022/08/20 11:37:57;;;;;;;6.30;1.70;;;31.30;71.80;;;;;;5145953;27;20039;-70
2022/08/20 11:40:27;;;;;;;3.90;1.30;;;31.60;71.00;;;;;;5145541;27;20043;-70
2022/08/20 11:42:53;;;;;;;4.55;1.60;;;31.50;70.50;;;;;;5145711;27;20114;-69
2022/08/20 11:45:19;;;;;;;7.70;1.58;;;31.40;71.40;;;;;;5140526;27;20192;-70
2022/08/20 11:47:44;;;;;;;4.95;1.90;;;31.40;71.20;;;;;;5127523;27;20046;-69
2022/08/20 11:50:15;;;;;;;6.68;1.73;;;31.70;71.90;;;;;;5143825;27;20174;-71
2022/08/20 11:52:41;;;;;;;7.75;1.70;;;31.50;70.10;;;;;;5147352;27;20034;-69
2022/08/20 11:55:10;;;;;;;4.82;1.52;;;31.50;70.80;;;;;;5124304;27;20127;-70
2022/08/20 11:57:40;;;;;;;5.32;1.80;;;31.50;70.10;;;;;;5121788;27;20047;-71
2022/08/20 12:00:11;;;;;;;4.65;1.52;;;31.50;70.10;;;;;;5143023;27;20047;-70
2022/08/20 12:02:37;;;;;;;6.72;1.80;;;31.10;70.60;;;;;;5121909;27;20486;-71
2022/08/20 12:05:04;;;;;;;4.78;1.48;;;30.00;71.20;;;;;;5146966;27;20035;-70
2022/08/20 12:07:30;;;;;;;5.43;1.55;;;29.60;72.50;;;;;;5143413;27;20111;-69
2022/08/20 12:09:56;;;;;;;4.63;1.52;;;29.70;73.40;;;;;;5146484;27;20735;-70
2022/08/20 12:12:22;;;;;;;5.43;1.60;;;29.80;72.90;;;;;;5144847;27;20125;-70
2022/08/20 12:14:50;;;;;;;3.65;1.40;;;29.40;73.20;;;;;;5144274;27;20106;-70
2022/08/20 12:17:22;;;;;;;6.03;1.73;;;29.00;73.40;;;;;;5127015;27;20046;-69
2022/08/20 12:19:50;;;;;;;6.00;1.92;;;28.90;73.80;;;;;;5146048;27;20054;-69
2022/08/20 12:22:15;;;;;;;6.28;1.80;;;28.40;74.70;;;;;;5125722;27;20054;-70
2022/08/20 12:24:41;;;;;;;6.80;1.63;;;28.10;76.00;;;;;;5126263;27;20088;-70
2022/08/20 12:27:19;;;;;;;3.60;1.48;;;27.80;75.40;;;;;;5126246;27;20042;-69
2022/08/20 12:29:47;;;;;;;3.22;1.48;;;27.50;76.10;;;;;;5128116;27;20061;-69
2022/08/20 12:32:13;;;;;;;4.57;1.40;;;27.20;75.50;;;;;;5144142;27;20043;-69
2022/08/20 12:34:40;;;;;;;4.85;1.60;;;27.70;74.20;;;;;;5146363;27;20083;-70
2022/08/20 12:37:14;;;;;;;4.78;1.75;;;27.50;75.90;;;;;;5142415;27;20536;-69
2022/08/20 12:39:41;;;;;;;4.28;1.77;;;27.30;72.80;;;;;;5127372;27;20106;-69
2022/08/20 12:42:07;;;;;;;3.92;1.42;;;27.10;73.30;;;;;;5124840;27;20399;-69
2022/08/20 12:44:33;;;;;;;4.18;1.58;;;27.40;74.40;;;;;;5141595;27;20042;-69
2022/08/20 12:47:12;;;;;;;5.75;1.90;;;27.80;74.90;;;;;;5124100;27;20493;-69
2022/08/20 12:49:40;;;;;;;5.25;1.65;;;28.30;73.20;;;;;;5122976;27;20078;-69
2022/08/20 12:52:06;;;;;;;3.38;1.20;;;28.50;72.30;;;;;;5126779;27;20135;-69
2022/08/20 12:54:32;;;;;;;5.47;1.70;;;28.60;72.70;;;;;;5125130;27;20035;-68
2022/08/20 12:57:00;;;;;;;5.05;1.50;;;28.30;73.50;;;;;;5126598;27;20107;-69